Terminal Aerodrome Forecast
Issued by NWS

Home | Current Version | Previous Version | Text Only | Print | Product List | Glossary On
Versions: 1 2 3 4 5 6 7 8 9 10 11 12 13 14
784
FTUS43 KICT 301735
TAFSLN
TAF
KSLN 301735Z 3018/3118 18010KT P6SM BKN120
     FM310000 18010KT P6SM SCT250
     FM310700 20010KT 4SM +TSRA BKN020 OVC060CB
     FM311500 22007KT P6SM -SHRA SCT025 BKN050=

USA.gov is the U.S. government's official web portal to all federal, state and local government web resources and services.